Capitol Logistics 1125


UBBB
Heydar Aliyev International Airport
Baku, AZ
EHAM
Schiphol International Airport
Amsterdam, NL

Activity Log

Date Flight Route Aircraft Duration
No Flights Yet

Route Details

Aircraft Information
Primary: Boeing 767-300BDSF
Backup: Not Available
Route Data
Distance: 1972nm
Sched. Duration: 5h 04m
Avg. Duration: 0h 00m (-505m)
Times Flown: 0
Recm'd Route: Not Available
Planned Altitude: 34,000ft
Origin Wx: UBBB 281200Z 18024G34KT CAVOK 12/07 Q1004 R88/CLRD// NOSIG
Dest. Wx: EHAM 281155Z 19016KT 160V220 9999 FEW025 06/01 Q1013 NOSIG
Notes:

Financial History
Total Freight: 0lbs
Average Load: 0lbs/flt
Fuel Used: 0lbs
Avg. Fuel Used: 0lbs/flt
Fuel Expense: $0
Avg. Fuel Expense: $0
Avg. Fuel Cost: $0/lbs
Total Gross Income: $0
Pilot Pay: $0
Total Expenses: $0
Total Revenue: $0
Average Revenue: $0